Time;durP1;ratioP1;P1;durP2;ratioP2;P2;SDS_P1;SDS_P2;PMS_P1;PMS_P2;Temp;Humidity;BMP_temperature;BMP_pressure;BME280_temperature;BME280_humidity;BME280_pressure;Samples;Min_cycle;Max_cycle;Signal;HPM_P1;HPM_P2
2022/10/06 00:02:03;;;;;;;5.10;3.10;;;;;;;13.81;63.50;95861.81;4980998;28;20740;-79
2022/10/06 00:04:30;;;;;;;3.00;2.70;;;;;;;13.80;63.77;95857.63;4994797;28;20197;-77
2022/10/06 00:06:57;;;;;;;4.03;2.87;;;;;;;13.79;63.54;95863.72;4994930;28;20191;-76
2022/10/06 00:09:24;;;;;;;2.73;2.47;;;;;;;13.75;63.71;95862.34;4992743;28;20205;-78
2022/10/06 00:11:51;;;;;;;3.53;3.00;;;;;;;13.75;63.79;95868.28;4992764;28;20201;-78
2022/10/06 00:14:18;;;;;;;2.77;2.57;;;;;;;13.73;63.92;95864.22;4992283;28;20649;-77
2022/10/06 00:16:46;;;;;;;6.13;3.17;;;;;;;13.74;63.89;95860.72;4992714;28;20201;-78
2022/10/06 00:19:13;;;;;;;3.47;2.97;;;;;;;13.70;63.95;95856.78;4992424;28;20600;-78
2022/10/06 00:21:40;;;;;;;5.23;3.07;;;;;;;13.59;63.76;95837.09;4992539;28;20220;-77
2022/10/06 00:24:07;;;;;;;2.60;2.40;;;;;;;13.70;63.83;95855.00;4992037;28;20182;-77
2022/10/06 00:26:33;;;;;;;4.83;2.93;;;;;;;13.69;63.90;95861.09;4992318;28;20196;-77
2022/10/06 00:29:00;;;;;;;3.33;3.03;;;;;;;13.52;63.89;95828.28;4992748;28;20557;-77
2022/10/06 00:31:27;;;;;;;3.33;2.47;;;;;;;13.63;63.89;95847.94;4992020;28;20641;-77
2022/10/06 00:33:55;;;;;;;3.43;2.50;;;;;;;13.65;63.92;95843.50;4992787;28;20349;-79
2022/10/06 00:36:22;;;;;;;4.33;3.00;;;;;;;13.63;64.01;95842.78;4992238;28;20197;-76
2022/10/06 00:38:49;;;;;;;3.53;3.20;;;;;;;13.61;64.11;95847.25;4994065;28;20224;-78
2022/10/06 00:41:17;;;;;;;4.43;2.87;;;;;;;13.57;64.08;95836.41;4992283;28;20232;-77
2022/10/06 00:43:50;;;;;;;6.03;3.20;;;;;;;13.58;64.01;95832.09;5005511;28;20196;-77
2022/10/06 00:46:25;;;;;;;4.57;3.10;;;;;;;13.55;64.09;95833.13;4993334;28;20703;-78
2022/10/06 00:48:59;;;;;;;3.33;2.97;;;;;;;13.52;64.38;95825.72;4994868;28;20192;-76
2022/10/06 00:51:28;;;;;;;4.40;2.77;;;;;;;13.52;64.26;95826.53;4994434;28;20233;-75
2022/10/06 00:53:56;;;;;;;3.57;2.47;;;;;;;13.45;64.22;95816.88;4994586;28;20193;-77
2022/10/06 00:56:24;;;;;;;3.20;2.43;;;;;;;13.44;64.15;95812.69;4994920;28;20668;-75
2022/10/06 00:58:51;;;;;;;6.20;3.10;;;;;;;13.43;64.37;95806.72;4996332;28;20284;-77
2022/10/06 01:01:18;;;;;;;3.20;2.90;;;;;;;13.49;64.31;95823.38;4993829;28;20224;-77
2022/10/06 01:03:48;;;;;;;6.17;3.10;;;;;;;13.47;64.33;95820.13;4992101;28;20201;-77
2022/10/06 01:06:17;;;;;;;7.20;3.10;;;;;;;13.45;64.39;95809.97;4991332;28;20204;-78
2022/10/06 01:08:44;;;;;;;3.50;3.20;;;;;;;13.37;64.29;95798.69;4991331;28;20181;-78
2022/10/06 01:11:13;;;;;;;3.57;2.67;;;;;;;13.43;64.29;95809.28;4991404;28;20208;-78
2022/10/06 01:13:42;;;;;;;3.53;2.63;;;;;;;13.42;64.36;95806.84;4991597;28;20189;-77
2022/10/06 01:16:15;;;;;;;3.37;3.07;;;;;;;13.39;64.42;95807.91;4991103;28;20247;-76
2022/10/06 01:18:45;;;;;;;3.17;2.57;;;;;;;13.36;64.30;95797.06;4992621;28;20199;-78
2022/10/06 01:21:20;;;;;;;3.47;2.87;;;;;;;13.37;64.51;95788.41;4991508;28;20945;-77
2022/10/06 01:23:49;;;;;;;5.03;3.10;;;;;;;13.35;64.46;95793.69;4991166;28;20660;-77
2022/10/06 01:26:18;;;;;;;4.13;2.90;;;;;;;13.33;64.42;95792.19;4991250;28;20189;-79
2022/10/06 01:28:46;;;;;;;2.90;2.60;;;;;;;13.33;64.38;95793.00;4991091;28;20197;-77
2022/10/06 01:31:14;;;;;;;4.83;2.67;;;;;;;13.33;64.39;95792.19;4991167;28;20192;-78
2022/10/06 01:33:41;;;;;;;4.23;2.63;;;;;;;13.29;64.65;95795.00;4990886;28;20196;-77
2022/10/06 01:36:08;;;;;;;4.33;2.73;;;;;;;13.28;64.37;95788.25;4991120;28;20283;-76
2022/10/06 01:38:36;;;;;;;3.03;2.53;;;;;;;13.27;64.51;95785.81;4991030;28;20235;-77
2022/10/06 01:41:04;;;;;;;3.40;2.60;;;;;;;13.24;64.33;95788.63;4990963;28;20275;-77
2022/10/06 01:43:31;;;;;;;3.73;2.70;;;;;;;13.22;64.45;95799.03;4990512;28;20588;-77
2022/10/06 01:45:59;;;;;;;3.53;2.63;;;;;;;13.22;64.36;95793.06;4990871;28;20192;-77
2022/10/06 01:48:27;;;;;;;4.03;2.67;;;;;;;13.15;64.44;95779.88;4975551;28;20200;-77
2022/10/06 01:50:55;;;;;;;4.83;2.97;;;;;;;13.21;64.55;95792.25;4971904;28;20564;-77
2022/10/06 01:53:22;;;;;;;3.60;3.10;;;;;;;13.20;64.68;95784.66;4971643;28;20190;-78
2022/10/06 01:55:48;;;;;;;4.83;2.60;;;;;;;13.18;64.65;95791.69;4971541;28;20217;-78
2022/10/06 01:58:17;;;;;;;2.90;2.50;;;;;;;13.13;64.32;95791.25;4971048;28;20198;-78
2022/10/06 02:00:44;;;;;;;4.23;2.70;;;;;;;13.09;64.47;95788.13;4975812;28;20268;-77
2022/10/06 02:03:11;;;;;;;2.70;2.50;;;;;;;13.14;64.50;95791.13;4990723;28;20204;-76
2022/10/06 02:05:38;;;;;;;2.93;2.33;;;;;;;13.13;64.48;95792.06;4990843;28;20199;-78
2022/10/06 02:08:04;;;;;;;4.00;3.40;;;;;;;13.12;64.40;95795.53;4990868;28;20193;-77
2022/10/06 02:10:31;;;;;;;2.53;2.33;;;;;;;13.09;64.59;95789.88;4990843;28;20222;-78
2022/10/06 02:12:58;;;;;;;3.73;2.57;;;;;;;13.10;64.59;95797.44;4991126;28;20588;-77
2022/10/06 02:15:27;;;;;;;3.00;2.50;;;;;;;13.07;64.48;95793.34;4994038;28;20200;-77
2022/10/06 02:17:54;;;;;;;2.37;2.17;;;;;;;13.05;64.32;95779.03;4994643;28;20255;-76
2022/10/06 02:20:24;;;;;;;2.80;2.50;;;;;;;13.07;64.46;95790.78;4994758;28;20181;-77
2022/10/06 02:22:51;;;;;;;5.37;2.47;;;;;;;12.95;64.33;95773.84;4994736;28;20737;-77
2022/10/06 02:25:18;;;;;;;2.80;2.37;;;;;;;13.05;64.48;95791.88;4997953;28;20193;-76
2022/10/06 02:27:45;;;;;;;3.30;3.00;;;;;;;13.01;64.54;95782.78;4994370;28;20199;-75
2022/10/06 02:30:13;;;;;;;4.50;2.80;;;;;;;13.03;64.69;95786.03;4989197;28;20201;-76
2022/10/06 02:32:42;;;;;;;5.23;2.63;;;;;;;12.95;64.64;95770.44;4975845;28;20190;-76
2022/10/06 02:35:11;;;;;;;4.67;2.57;;;;;;;13.01;64.59;95785.34;4975754;28;20236;-77
2022/10/06 02:37:39;;;;;;;2.90;2.40;;;;;;;12.99;64.75;95782.91;4977699;28;20205;-78
2022/10/06 02:40:08;;;;;;;4.73;2.70;;;;;;;12.98;64.57;95791.53;4977684;28;20788;-76
2022/10/06 02:42:36;;;;;;;4.53;2.97;;;;;;;12.99;64.73;95794.94;4989352;28;20256;-77
2022/10/06 02:45:05;;;;;;;3.43;2.70;;;;;;;12.98;64.50;95793.31;4983990;28;20189;-77
2022/10/06 02:47:32;;;;;;;4.40;2.70;;;;;;;12.97;64.68;95797.63;4981750;28;20186;-78
2022/10/06 02:50:02;;;;;;;4.03;2.53;;;;;;;12.96;64.63;95795.19;4975288;28;20252;-77
2022/10/06 02:52:33;;;;;;;3.10;2.80;;;;;;;12.93;64.52;95792.88;4985937;28;20247;-78
2022/10/06 02:55:02;;;;;;;3.43;2.80;;;;;;;12.86;64.72;95779.69;4994822;28;20726;-78
2022/10/06 02:57:28;;;;;;;4.50;2.80;;;;;;;12.90;64.51;95799.06;4995592;28;20197;-77
2022/10/06 02:59:55;;;;;;;3.40;2.90;;;;;;;12.88;64.68;95797.56;4987953;28;20190;-78
2022/10/06 03:02:22;;;;;;;4.70;3.20;;;;;;;12.89;64.77;95799.19;4990438;28;20205;-77
2022/10/06 03:04:50;;;;;;;5.83;2.83;;;;;;;12.87;64.53;95794.19;4993409;28;20210;-78
2022/10/06 03:07:18;;;;;;;3.30;3.00;;;;;;;12.89;64.75;95799.19;4993242;28;20653;-78
2022/10/06 03:09:45;;;;;;;4.40;2.87;;;;;;;12.84;64.60;95794.44;4993264;28;20197;-79
2022/10/06 03:12:12;;;;;;;3.10;2.80;;;;;;;12.87;64.53;95795.94;4993415;28;20197;-78
2022/10/06 03:14:40;;;;;;;6.13;3.27;;;;;;;12.87;64.74;95799.31;4992387;28;20209;-78
2022/10/06 03:17:08;;;;;;;4.50;2.80;;;;;;;12.85;64.63;95798.63;4992682;28;20192;-77
2022/10/06 03:19:37;;;;;;;3.50;3.20;;;;;;;12.84;64.66;95794.44;4973437;28;20186;-78
2022/10/06 03:22:04;;;;;;;3.20;2.90;;;;;;;12.81;64.72;95790.34;4972868;28;20261;-78
2022/10/06 03:24:33;;;;;;;3.53;3.23;;;;;;;12.79;64.81;95786.28;4975007;28;20201;-78
2022/10/06 03:27:00;;;;;;;3.70;3.23;;;;;;;12.80;64.90;95795.63;4992691;28;20199;-78
2022/10/06 03:29:29;;;;;;;5.83;3.07;;;;;;;12.81;65.00;95799.81;4984173;28;20550;-78
2022/10/06 03:31:57;;;;;;;4.10;3.30;;;;;;;12.77;64.48;95788.16;4988079;28;20236;-78
2022/10/06 03:34:23;;;;;;;4.10;3.30;;;;;;;12.75;64.74;95775.44;4988547;28;20182;-79
2022/10/06 03:36:50;;;;;;;3.87;3.10;;;;;;;12.77;64.88;95788.16;4972774;28;20198;-77
2022/10/06 03:39:17;;;;;;;6.07;3.17;;;;;;;12.74;64.85;95789.22;4934046;28;1155568;-77
2022/10/06 03:41:45;;;;;;;4.43;3.43;;;;;;;12.75;64.69;95787.47;4973744;28;20190;-77
2022/10/06 03:44:12;;;;;;;3.47;2.83;;;;;;;12.67;64.74;95777.81;4981623;28;20197;-75
2022/10/06 03:46:39;;;;;;;3.43;2.80;;;;;;;12.73;64.95;95781.63;4993642;28;20200;-78
2022/10/06 03:49:06;;;;;;;4.93;2.90;;;;;;;12.72;64.90;95785.16;4993875;28;20676;-79
2022/10/06 03:51:35;;;;;;;5.07;3.23;;;;;;;12.72;64.83;95780.00;4992652;28;20195;-79
2022/10/06 03:54:02;;;;;;;4.27;3.17;;;;;;;12.69;64.69;95778.50;4993698;28;20200;-79
2022/10/06 03:56:31;;;;;;;4.90;3.37;;;;;;;12.71;64.79;95783.53;4992981;28;20189;-78
2022/10/06 03:59:00;;;;;;;6.17;3.33;;;;;;;12.69;64.90;95778.50;4992195;28;20259;-79
2022/10/06 04:01:29;;;;;;;5.83;3.50;;;;;;;12.65;64.75;95777.16;4987321;28;20189;-79
2022/10/06 04:03:58;;;;;;;5.27;3.53;;;;;;;12.67;64.76;95785.53;4992460;28;20209;-80
2022/10/06 04:06:27;;;;;;;6.47;3.63;;;;;;;12.66;64.84;95783.91;4991709;28;20222;-76
2022/10/06 04:08:55;;;;;;;5.93;3.37;;;;;;;12.65;64.87;95784.00;4992656;28;20215;-79
2022/10/06 04:11:23;;;;;;;3.53;3.20;;;;;;;12.66;64.75;95789.03;4983293;28;20193;-78
2022/10/06 04:13:53;;;;;;;4.97;3.60;;;;;;;12.64;64.69;95787.50;4973076;28;20204;-78
2022/10/06 04:16:26;;;;;;;8.77;3.60;;;;;;;12.60;64.71;95775.88;4973714;28;20181;-78
2022/10/06 04:18:54;;;;;;;6.07;3.60;;;;;;;12.62;64.75;95782.50;4976999;28;20208;-78
2022/10/06 04:21:22;;;;;;;5.03;3.13;;;;;;;12.62;64.76;95790.22;4992734;28;20189;-78
2022/10/06 04:23:49;;;;;;;5.00;3.53;;;;;;;12.58;64.93;95777.75;4992170;28;20224;-77
2022/10/06 04:26:18;;;;;;;5.50;3.73;;;;;;;12.61;64.71;95788.59;4992347;28;20549;-80
2022/10/06 04:28:46;;;;;;;4.70;3.67;;;;;;;12.55;64.89;95778.81;4990615;28;20205;-79
2022/10/06 04:31:15;;;;;;;9.97;4.10;;;;;;;12.60;64.73;95781.00;4983093;28;20202;-78
2022/10/06 04:33:45;;;;;;;6.47;3.87;;;;;;;12.58;64.88;95785.44;4972564;28;20203;-79
2022/10/06 04:36:14;;;;;;;8.63;4.43;;;;;;;12.61;64.89;95791.16;4972652;28;20198;-79
2022/10/06 04:38:41;;;;;;;6.30;4.47;;;;;;;12.60;64.74;95798.97;4972838;28;20225;-78
2022/10/06 04:41:12;;;;;;;3.63;3.03;;;;;;;12.85;95.28;95790.91;4980251;28;20197;-76
2022/10/06 04:43:39;;;;;;;4.57;3.70;;;;;;;13.24;96.52;95794.56;4994353;28;20623;-79
2022/10/06 04:46:06;;;;;;;10.43;4.03;;;;;;;13.59;100.00;95787.44;5000828;28;20186;-80
2022/10/06 04:48:33;;;;;;;8.43;4.00;;;;;;;14.05;100.00;95786.91;4995001;28;20189;-79
2022/10/06 04:51:04;;;;;;;11.50;4.60;;;;;;;14.36;100.00;95779.13;4991925;28;20652;-79
2022/10/06 04:53:31;;;;;;;8.40;4.27;;;;;;;14.78;98.63;95787.44;4992273;28;20201;-78
2022/10/06 04:56:02;;;;;;;4.73;3.20;;;;;;;15.12;97.49;95797.28;4992018;28;20185;-81
2022/10/06 04:58:33;;;;;;;5.10;3.60;;;;;;;15.46;95.18;95806.16;4991851;28;20216;-78
2022/10/06 05:01:01;;;;;;;9.40;3.23;;;;;;;15.78;93.48;95805.81;4991243;28;20188;-78
2022/10/06 05:03:28;;;;;;;5.53;3.37;;;;;;;16.04;92.11;95798.22;4991574;28;20227;-79
2022/10/06 05:06:04;;;;;;;11.20;3.90;;;;;;;16.37;90.95;95802.94;4991073;28;20197;-76
2022/10/06 05:08:31;;;;;;;6.77;3.23;;;;;;;16.64;89.56;95805.44;4991405;28;20189;-78
2022/10/06 05:11:02;;;;;;;12.60;3.73;;;;;;;16.88;88.70;95809.22;4991396;28;20195;-78
2022/10/06 05:13:29;;;;;;;4.97;3.70;;;;;;;17.09;86.55;95809.72;4991498;28;20216;-78
2022/10/06 05:15:56;;;;;;;11.53;4.00;;;;;;;17.32;84.33;95817.00;4990827;28;20196;-77
2022/10/06 05:18:23;;;;;;;6.40;3.73;;;;;;;17.55;83.10;95816.31;4990554;28;20191;-76
2022/10/06 05:20:55;;;;;;;7.70;4.53;;;;;;;17.82;81.10;95811.97;4986490;28;20201;-81
2022/10/06 05:23:24;;;;;;;8.17;4.40;;;;;;;18.03;79.46;95802.03;4969525;28;20249;-79
2022/10/06 05:25:51;;;;;;;9.23;4.47;;;;;;;18.46;78.22;95810.56;4969204;28;20617;-79
2022/10/06 05:28:18;;;;;;;8.10;4.47;;;;;;;18.76;76.85;95804.00;4969225;28;20197;-77
2022/10/06 05:30:55;;;;;;;8.70;4.10;;;;;;;19.09;75.05;95804.03;4969294;28;20201;-78
2022/10/06 05:33:21;;;;;;;6.53;4.27;;;;;;;19.35;74.04;95782.28;4969151;28;20186;-78
2022/10/06 05:35:51;;;;;;;11.93;5.10;;;;;;;19.84;73.14;95795.16;4969232;28;20190;-81
2022/10/06 05:38:18;;;;;;;5.43;4.00;;;;;;;20.27;72.03;95805.00;4969439;28;20245;-80
2022/10/06 05:40:46;;;;;;;6.07;4.03;;;;;;;20.63;70.62;95798.50;4968920;28;20213;-77
2022/10/06 05:43:13;;;;;;;7.63;4.27;;;;;;;20.96;69.17;95809.50;4984827;28;20735;-78
2022/10/06 05:45:40;;;;;;;9.80;4.80;;;;;;;21.37;67.89;95809.97;4990717;28;20192;-78
2022/10/06 05:48:07;;;;;;;6.40;4.90;;;;;;;21.86;66.43;95811.28;4990872;28;20189;-78
2022/10/06 05:50:34;;;;;;;10.73;4.35;;;;;;;22.24;64.84;95819.81;4990781;28;20197;-77
2022/10/06 05:53:01;;;;;;;11.48;5.60;;;;;;;22.63;63.19;95816.03;4990868;28;20664;-78
2022/10/06 05:55:27;;;;;;;6.55;5.03;;;;;;;22.92;62.16;95813.31;4991294;28;20184;-78
2022/10/06 05:57:56;;;;;;;8.82;5.03;;;;;;;23.29;60.20;95820.06;4990182;28;20289;-77
2022/10/06 06:00:23;;;;;;;8.48;4.75;;;;;;;23.60;58.96;95824.09;4990915;28;20656;-78
2022/10/06 06:02:49;;;;;;;8.02;5.20;;;;;;;23.93;57.51;95828.78;4990568;28;20229;-79
2022/10/06 06:05:16;;;;;;;9.23;5.55;;;;;;;24.34;56.25;95835.78;4991237;28;20196;-78
2022/10/06 06:07:43;;;;;;;6.93;5.03;;;;;;;24.72;55.32;95823.06;4990749;28;20189;-79
2022/10/06 06:10:10;;;;;;;10.60;5.07;;;;;;;25.19;54.33;95835.25;4991067;28;20202;-79
2022/10/06 06:12:37;;;;;;;8.52;4.72;;;;;;;25.63;52.97;95828.56;4990536;28;20672;-79
2022/10/06 06:17:50;;;;;;;7.28;4.18;;;;;;;26.64;50.86;95833.38;4990608;28;20204;-78
2022/10/06 06:20:17;;;;;;;5.60;4.63;;;;;;;27.19;49.40;95835.47;4990777;28;20197;-79
2022/10/06 06:22:44;;;;;;;8.60;4.63;;;;;;;27.63;48.82;95834.47;4990603;28;20276;-78
2022/10/06 06:25:11;;;;;;;9.18;5.00;;;;;;;28.07;47.38;95831.88;4990883;28;20203;-78
2022/10/06 06:27:40;;;;;;;8.88;4.80;;;;;;;28.52;46.92;95845.53;4990593;28;20212;-78
2022/10/06 06:30:10;;;;;;;7.78;5.10;;;;;;;28.96;45.51;95849.59;4991437;28;20276;-78
2022/10/06 06:32:37;;;;;;;12.50;5.13;;;;;;;29.40;44.68;95839.63;4990904;28;20188;-78
2022/10/06 06:35:04;;;;;;;8.23;4.70;;;;;;;29.86;44.16;95845.97;4990745;28;20192;-79
2022/10/06 06:37:32;;;;;;;6.35;4.70;;;;;;;30.32;43.44;95851.47;4991034;28;20204;-78
2022/10/06 06:39:59;;;;;;;6.95;4.50;;;;;;;30.69;42.55;95851.91;4991048;28;20236;-78
2022/10/06 06:42:25;;;;;;;8.23;4.40;;;;;;;31.02;41.85;95850.41;4991476;28;20195;-79
2022/10/06 06:44:53;;;;;;;7.78;5.15;;;;;;;31.31;41.44;95844.06;4997644;28;20216;-77
2022/10/06 06:47:21;;;;;;;6.40;4.30;;;;;;;31.61;40.71;95851.69;4999396;28;20193;-77
2022/10/06 06:49:48;;;;;;;4.65;4.22;;;;;;;31.78;40.38;95842.91;4995972;28;20193;-78
2022/10/06 06:52:15;;;;;;;6.78;4.53;;;;;;;31.90;39.78;95841.00;4994245;28;20216;-78
2022/10/06 06:54:42;;;;;;;7.25;4.63;;;;;;;32.12;39.09;95835.72;4991605;28;20189;-79
2022/10/06 06:57:09;;;;;;;8.20;4.35;;;;;;;32.36;38.60;95831.00;4990904;28;20196;-78
2022/10/06 06:59:37;;;;;;;6.57;4.63;;;;;;;32.59;38.32;95830.75;4992550;28;20688;-77
2022/10/06 07:02:03;;;;;;;7.45;4.25;;;;;;;32.89;37.65;95834.75;4995654;28;20185;-81
2022/10/06 07:04:32;;;;;;;6.63;4.18;;;;;;;33.10;37.48;95831.28;4995297;28;20220;-79
2022/10/06 07:06:59;;;;;;;8.23;4.32;;;;;;;33.32;36.99;95831.19;4994461;28;20668;-78
2022/10/06 07:09:26;;;;;;;9.50;4.38;;;;;;;33.52;36.57;95835.09;4994874;28;20193;-78
2022/10/06 07:11:54;;;;;;;6.05;4.30;;;;;;;33.72;36.39;95829.91;4995616;28;20197;-79
2022/10/06 07:14:23;;;;;;;7.50;4.25;;;;;;;33.91;36.00;95836.41;4994744;28;20229;-78
2022/10/06 07:25:13;;;;;;;4.30;3.47;;;;;;;34.63;34.94;95826.94;4914885;29;20286;-77
2022/10/06 07:27:42;;;;;;;5.85;3.63;;;;;;;34.76;34.52;95830.13;4914172;29;20191;-77
2022/10/06 07:30:13;;;;;;;9.70;4.40;;;;;;;34.83;34.28;95820.84;4914784;29;20198;-78
2022/10/06 07:32:40;;;;;;;7.85;4.05;;;;;;;34.93;34.14;95822.72;4914487;29;20192;-78
2022/10/06 07:35:09;;;;;;;7.97;4.05;;;;;;;34.95;34.01;95820.59;4914234;29;20211;-77
2022/10/06 07:37:36;;;;;;;5.13;4.35;;;;;;;35.00;33.82;95811.88;4914869;29;20188;-77
2022/10/06 07:40:06;;;;;;;6.03;4.57;;;;;;;35.05;33.84;95810.00;4914693;29;20664;-79
2022/10/06 07:42:47;;;;;;;6.35;4.13;;;;;;;35.14;33.41;95816.38;4914441;29;20196;-77
2022/10/06 07:48:00;;;;;;;6.05;4.07;;;;;;;34.92;33.31;95779.38;4914727;29;20194;-77
2022/10/06 07:50:28;;;;;;;5.22;4.07;;;;;;;35.18;33.26;95819.31;4914921;29;20199;-79
2022/10/06 07:53:03;;;;;;;6.78;3.92;;;;;;;35.18;33.18;95827.31;4914028;29;20218;-79
2022/10/06 07:55:31;;;;;;;5.22;3.97;;;;;;;35.14;32.92;95824.38;4913990;29;20211;-78
2022/10/06 07:57:58;;;;;;;6.20;3.90;;;;;;;35.11;33.08;95824.91;4913638;29;20199;-78
2022/10/06 08:00:25;;;;;;;7.80;3.80;;;;;;;35.04;33.17;95812.94;4983329;28;20188;-79
2022/10/06 08:02:53;;;;;;;8.40;4.18;;;;;;;34.96;33.04;95822.19;4992629;28;20673;-78
2022/10/06 08:05:20;;;;;;;6.45;3.97;;;;;;;34.85;33.11;95823.28;4993215;28;20185;-77
2022/10/06 08:07:49;;;;;;;6.43;4.53;;;;;;;34.73;33.25;95820.06;4992720;28;20201;-79
2022/10/06 08:10:17;;;;;;;3.92;3.58;;;;;;;34.72;33.16;95823.75;4992519;28;20195;-76
2022/10/06 08:12:44;;;;;;;9.95;4.43;;;;;;;34.77;32.99;95821.13;4992068;28;20198;-78
2022/10/06 08:15:13;;;;;;;6.47;3.65;;;;;;;34.67;33.34;95827.19;4992620;28;20185;-78
2022/10/06 08:17:40;;;;;;;9.00;4.05;;;;;;;34.47;33.47;95813.84;4992686;28;20189;-78
2022/10/06 08:20:10;;;;;;;8.15;4.55;;;;;;;34.27;33.53;95822.53;4992495;28;20602;-78
2022/10/06 08:22:38;;;;;;;8.77;4.63;;;;;;;33.94;33.78;95798.72;4992698;28;20208;-78
2022/10/06 08:25:09;;;;;;;5.78;4.70;;;;;;;33.91;33.66;95812.50;4992079;28;20208;-78
2022/10/06 08:27:36;;;;;;;8.80;4.57;;;;;;;33.77;33.72;95811.38;4992610;28;20259;-78
2022/10/06 08:30:05;;;;;;;8.18;4.70;;;;;;;33.62;34.11;95808.63;4992149;28;20200;-78
2022/10/06 08:32:32;;;;;;;7.60;4.95;;;;;;;33.48;34.06;95810.13;4992488;28;20197;-79
2022/10/06 08:34:58;;;;;;;9.77;4.80;;;;;;;33.31;34.04;95810.25;4992146;28;20200;-78
2022/10/06 08:37:26;;;;;;;5.28;4.57;;;;;;;33.13;34.13;95811.44;4992266;28;20615;-79
2022/10/06 08:39:54;;;;;;;7.55;4.82;;;;;;;32.97;34.08;95810.50;4991865;28;20275;-78
2022/10/06 08:42:30;;;;;;;12.38;4.93;;;;;;;32.82;34.20;95803.19;4992258;28;20200;-78
2022/10/06 08:45:01;;;;;;;6.45;4.38;;;;;;;32.63;34.29;95802.72;5004619;28;20239;-77
2022/10/06 08:47:32;;;;;;;9.05;5.45;;;;;;;32.42;34.31;95799.03;5000403;28;20190;-77
2022/10/06 08:50:00;;;;;;;7.47;5.13;;;;;;;32.27;34.26;95801.50;4992015;28;20197;-78
2022/10/06 08:52:45;;;;;;;7.25;5.32;;;;;;;32.04;34.04;95797.28;4991989;28;20719;-78
2022/10/06 08:55:26;;;;;;;7.13;4.97;;;;;;;31.84;34.08;95799.66;4992095;28;20193;-77
2022/10/06 08:58:16;;;;;;;7.53;5.00;;;;;;;31.65;34.50;95794.59;4991855;28;20657;-78
2022/10/06 09:00:43;;;;;;;8.73;4.75;;;;;;;31.42;34.49;95800.88;4988763;28;20731;-78
2022/10/06 09:03:21;;;;;;;6.82;4.70;;;;;;;31.22;34.51;95796.06;4991537;28;20580;-78
2022/10/06 09:05:49;;;;;;;8.95;5.10;;;;;;;31.01;34.68;95803.91;4991925;28;20201;-78
2022/10/06 09:08:33;;;;;;;7.35;5.13;;;;;;;30.77;34.65;95798.72;4991550;28;20193;-78
2022/10/06 09:11:11;;;;;;;7.60;4.78;;;;;;;30.47;34.74;95791.81;4991336;28;20193;-78
2022/10/06 09:13:44;;;;;;;8.05;4.75;;;;;;;30.29;34.91;95796.47;4991528;28;20212;-78
2022/10/06 09:16:15;;;;;;;8.38;5.05;;;;;;;29.99;34.78;95778.97;4991592;28;20200;-79
2022/10/06 09:18:48;;;;;;;6.43;4.53;;;;;;;29.81;34.90;95793.13;4991191;28;20749;-78
2022/10/06 09:21:17;;;;;;;5.97;4.80;;;;;;;29.57;35.09;95794.16;4991361;28;20276;-79
2022/10/06 09:23:50;;;;;;;9.98;4.88;;;;;;;29.36;35.20;95780.50;4990737;28;20223;-77
2022/10/06 09:26:21;;;;;;;8.02;4.43;;;;;;;29.18;35.17;95783.22;4991553;28;20185;-78
2022/10/06 09:28:51;;;;;;;7.13;5.07;;;;;;;28.97;35.39;95779.28;4991083;28;20731;-78
2022/10/06 09:31:22;;;;;;;6.30;4.82;;;;;;;28.77;35.53;95776.16;4991184;28;20193;-78
2022/10/06 09:33:52;;;;;;;7.88;4.47;;;;;;;28.59;35.87;95777.81;4991000;28;20219;-78
2022/10/06 09:36:19;;;;;;;5.85;4.30;;;;;;;28.41;35.98;95769.94;4990891;28;20256;-78
2022/10/06 09:38:52;;;;;;;7.07;4.45;;;;;;;28.27;36.24;95764.03;4990755;28;20232;-77
2022/10/06 09:41:22;;;;;;;6.70;4.45;;;;;;;28.13;36.49;95760.75;4991327;28;20193;-78
2022/10/06 09:43:56;;;;;;;5.03;4.20;;;;;;;27.96;35.92;95759.75;4990677;28;20224;-78
2022/10/06 09:46:30;;;;;;;9.70;4.75;;;;;;;27.82;36.64;95763.56;4991058;28;20688;-78
2022/10/06 09:49:16;;;;;;;8.82;4.45;;;;;;;27.61;36.77;95759.50;4990860;28;20215;-77
2022/10/06 09:51:59;;;;;;;8.02;4.47;;;;;;;27.50;36.89;95755.75;4990900;28;20197;-77
2022/10/06 09:54:28;;;;;;;6.05;4.68;;;;;;;27.38;36.66;95755.69;4990955;28;20204;-79
2022/10/06 09:56:57;;;;;;;6.95;4.70;;;;;;;27.27;37.07;95757.19;4990688;28;20251;-79
2022/10/06 09:59:31;;;;;;;6.15;4.45;;;;;;;27.16;36.93;95747.41;4990753;28;20197;-78
2022/10/06 10:01:59;;;;;;;6.68;4.20;;;;;;;27.00;36.98;95746.06;4990363;28;20224;-79
2022/10/06 10:04:29;;;;;;;8.18;3.78;;;;;;;26.91;37.15;95749.19;4990876;28;20278;-79
2022/10/06 10:07:14;;;;;;;7.07;4.38;;;;;;;26.81;37.35;95751.47;4990662;28;20216;-79
2022/10/06 10:09:41;;;;;;;8.00;3.58;;;;;;;26.70;37.33;95755.59;4991011;28;20204;-78
2022/10/06 10:12:32;;;;;;;5.50;3.80;;;;;;;26.60;37.65;95739.50;4990379;28;20243;-78
2022/10/06 10:15:23;;;;;;;5.80;4.03;;;;;;;26.54;37.56;95738.53;4990559;28;20193;-79
2022/10/06 10:17:53;;;;;;;8.32;3.90;;;;;;;26.43;37.37;95747.88;4991165;28;20229;-80
2022/10/06 10:20:33;;;;;;;4.50;3.67;;;;;;;26.36;37.83;95743.66;4990478;28;20648;-79
2022/10/06 10:23:02;;;;;;;5.68;3.28;;;;;;;26.27;37.84;95738.66;4990509;28;20193;-78
2022/10/06 10:25:53;;;;;;;5.93;3.60;;;;;;;26.14;38.17;95727.44;4990911;28;20232;-78
2022/10/06 10:28:41;;;;;;;8.23;3.63;;;;;;;26.16;37.92;95741.13;4990866;28;20284;-78
2022/10/06 10:31:19;;;;;;;4.22;3.03;;;;;;;26.09;37.93;95727.25;4991127;28;20239;-79
2022/10/06 10:33:57;;;;;;;8.02;3.20;;;;;;;26.03;38.03;95729.69;4990585;28;20232;-78
2022/10/06 10:36:33;;;;;;;3.47;3.00;;;;;;;25.97;37.89;95722.66;4994697;28;20193;-78
2022/10/06 10:39:01;;;;;;;6.03;3.42;;;;;;;25.93;38.27;95726.72;4993969;28;20229;-79
2022/10/06 10:41:34;;;;;;;4.40;3.47;;;;;;;25.86;37.97;95723.31;4995791;28;20181;-77
2022/10/06 10:44:09;;;;;;;4.97;3.45;;;;;;;25.83;38.06;95720.31;5001185;28;20217;-77
2022/10/06 10:46:44;;;;;;;6.00;3.70;;;;;;;25.77;38.27;95716.69;5003420;28;20227;-77
2022/10/06 10:49:18;;;;;;;5.25;3.15;;;;;;;25.76;38.03;95715.88;4994241;28;20215;-78
2022/10/06 10:51:50;;;;;;;3.72;3.33;;;;;;;25.72;38.11;95706.00;4994274;28;20196;-78
2022/10/06 10:54:23;;;;;;;5.75;3.33;;;;;;;25.72;37.91;95706.00;4994365;28;20843;-78
2022/10/06 10:56:52;;;;;;;4.85;3.60;;;;;;;25.64;37.87;95696.53;4994062;28;20244;-78
2022/10/06 10:59:25;;;;;;;4.88;4.03;;;;;;;25.63;38.40;95694.16;4994206;28;20228;-78
2022/10/06 11:01:59;;;;;;;10.80;3.90;;;;;;;25.62;38.33;95701.19;4993616;28;20196;-79
2022/10/06 11:04:26;;;;;;;10.15;4.10;;;;;;;25.63;38.09;95699.38;4993620;28;20216;-77
2022/10/06 11:07:12;;;;;;;7.82;3.58;;;;;;;25.62;37.96;95689.91;4993776;28;20204;-78
2022/10/06 11:09:48;;;;;;;3.72;3.17;;;;;;;25.58;38.39;95691.34;4993882;28;20200;-77
2022/10/06 11:12:25;;;;;;;8.93;3.38;;;;;;;25.61;38.03;95686.50;4993524;28;20200;-79
2022/10/06 11:14:58;;;;;;;5.05;3.53;;;;;;;25.59;38.39;95691.13;4993711;28;20671;-79
2022/10/06 11:17:44;;;;;;;4.13;3.30;;;;;;;25.61;38.29;95678.63;4993525;28;20284;-79
2022/10/06 11:20:34;;;;;;;5.63;3.60;;;;;;;25.63;38.36;95686.28;4992183;28;20193;-78
2022/10/06 11:23:28;;;;;;;3.47;3.17;;;;;;;25.62;38.31;95684.69;4993562;28;20200;-79
2022/10/06 11:26:04;;;;;;;5.53;3.33;;;;;;;25.61;37.91;95676.03;4914195;29;20227;-77
2022/10/06 11:28:38;;;;;;;5.95;3.47;;;;;;;25.57;37.91;95669.59;4914352;29;20723;-78
2022/10/06 11:31:17;;;;;;;3.05;2.78;;;;;;;25.50;38.09;95655.69;4914165;29;20230;-80
2022/10/06 11:33:49;;;;;;;5.50;3.00;;;;;;;25.41;37.81;95644.66;4914057;29;20194;-78
2022/10/06 11:36:24;;;;;;;5.80;3.72;;;;;;;25.56;37.89;95661.91;4914151;29;20911;-78
2022/10/06 11:39:00;;;;;;;3.63;2.92;;;;;;;25.50;38.09;95655.69;4913768;29;20227;-78
2022/10/06 11:41:31;;;;;;;6.72;3.25;;;;;;;25.46;37.92;95654.50;4914470;29;20223;-78
2022/10/06 11:44:05;;;;;;;6.72;3.17;;;;;;;25.43;38.00;95650.50;4913896;29;20719;-78
2022/10/06 11:46:38;;;;;;;3.78;2.60;;;;;;;25.40;38.07;95648.28;4914087;29;20188;-78
2022/10/06 11:49:47;;;;;;;5.60;2.92;;;;;;;25.39;37.74;95640.59;4913850;29;20192;-78
2022/10/06 11:52:42;;;;;;;4.07;3.10;;;;;;;25.37;37.56;95635.59;4913697;29;20763;-77
2022/10/06 11:55:15;;;;;;;3.35;3.05;;;;;;;25.38;37.53;95634.56;4914032;29;20192;-78
2022/10/06 11:58:06;;;;;;;3.88;2.75;;;;;;;25.39;37.69;95630.13;4913902;29;20208;-80
2022/10/06 12:00:45;;;;;;;4.55;3.38;;;;;;;25.36;37.71;95626.13;4913678;29;20195;-78
2022/10/06 12:03:43;;;;;;;4.57;3.33;;;;;;;25.36;37.43;95628.75;4961854;28;20214;-79